sensor_id;sensor_type;location;lat;lon;timestamp;P1;durP1;ratioP1;P2;durP2;ratioP2
76284;SDS011;71676;50.998;7.098;2024-02-16T00:00:22;3.60;;;1.60;;
76284;SDS011;71676;50.998;7.098;2024-02-16T00:02:49;4.05;;;1.42;;
76284;SDS011;71676;50.998;7.098;2024-02-16T00:05:16;4.22;;;1.70;;
76284;SDS011;71676;50.998;7.098;2024-02-16T00:07:43;4.43;;;1.63;;
76284;SDS011;71676;50.998;7.098;2024-02-16T00:10:10;6.20;;;1.50;;
76284;SDS011;71676;50.998;7.098;2024-02-16T00:12:38;5.00;;;1.90;;
76284;SDS011;71676;50.998;7.098;2024-02-16T00:15:06;4.30;;;1.70;;
76284;SDS011;71676;50.998;7.098;2024-02-16T00:17:35;3.28;;;1.40;;
76284;SDS011;71676;50.998;7.098;2024-02-16T00:20:02;3.63;;;1.55;;
76284;SDS011;71676;50.998;7.098;2024-02-16T00:22:32;2.65;;;1.30;;
76284;SDS011;71676;50.998;7.098;2024-02-16T00:24:59;4.15;;;1.30;;
76284;SDS011;71676;50.998;7.098;2024-02-16T00:27:25;8.32;;;2.53;;
76284;SDS011;71676;50.998;7.098;2024-02-16T00:29:52;7.72;;;2.22;;
76284;SDS011;71676;50.998;7.098;2024-02-16T00:32:20;4.85;;;1.70;;
76284;SDS011;71676;50.998;7.098;2024-02-16T00:34:49;4.63;;;1.52;;
76284;SDS011;71676;50.998;7.098;2024-02-16T00:37:17;4.05;;;1.52;;
76284;SDS011;71676;50.998;7.098;2024-02-16T00:39:43;4.20;;;2.00;;
76284;SDS011;71676;50.998;7.098;2024-02-16T00:42:10;4.82;;;1.60;;
76284;SDS011;71676;50.998;7.098;2024-02-16T00:44:37;3.15;;;1.38;;
76284;SDS011;71676;50.998;7.098;2024-02-16T00:47:04;3.78;;;1.52;;
76284;SDS011;71676;50.998;7.098;2024-02-16T00:49:32;4.03;;;1.52;;
76284;SDS011;71676;50.998;7.098;2024-02-16T00:51:59;3.88;;;1.48;;
76284;SDS011;71676;50.998;7.098;2024-02-16T00:54:26;3.97;;;1.70;;
76284;SDS011;71676;50.998;7.098;2024-02-16T00:56:53;4.47;;;1.50;;
76284;SDS011;71676;50.998;7.098;2024-02-16T00:59:19;5.63;;;1.63;;
76284;SDS011;71676;50.998;7.098;2024-02-16T01:01:46;4.47;;;1.48;;
76284;SDS011;71676;50.998;7.098;2024-02-16T01:04:13;4.13;;;1.70;;
76284;SDS011;71676;50.998;7.098;2024-02-16T01:09:07;6.25;;;1.80;;
76284;SDS011;71676;50.998;7.098;2024-02-16T01:11:34;3.58;;;1.42;;
76284;SDS011;71676;50.998;7.098;2024-02-16T01:14:01;7.80;;;2.60;;
76284;SDS011;71676;50.998;7.098;2024-02-16T01:16:27;5.03;;;1.70;;
76284;SDS011;71676;50.998;7.098;2024-02-16T01:18:54;4.38;;;1.40;;
76284;SDS011;71676;50.998;7.098;2024-02-16T01:21:21;4.30;;;1.60;;
76284;SDS011;71676;50.998;7.098;2024-02-16T01:23:50;3.67;;;1.50;;
76284;SDS011;71676;50.998;7.098;2024-02-16T01:26:17;4.35;;;1.90;;
76284;SDS011;71676;50.998;7.098;2024-02-16T01:28:43;7.90;;;1.80;;
76284;SDS011;71676;50.998;7.098;2024-02-16T01:31:10;6.55;;;1.88;;
76284;SDS011;71676;50.998;7.098;2024-02-16T01:33:37;4.95;;;1.70;;
76284;SDS011;71676;50.998;7.098;2024-02-16T01:36:04;4.78;;;1.40;;
76284;SDS011;71676;50.998;7.098;2024-02-16T01:38:31;4.07;;;1.40;;
76284;SDS011;71676;50.998;7.098;2024-02-16T01:40:59;7.45;;;2.00;;
76284;SDS011;71676;50.998;7.098;2024-02-16T01:43:27;5.65;;;2.40;;
76284;SDS011;71676;50.998;7.098;2024-02-16T01:45:53;4.43;;;1.65;;
76284;SDS011;71676;50.998;7.098;2024-02-16T01:48:22;4.40;;;1.60;;
76284;SDS011;71676;50.998;7.098;2024-02-16T01:50:49;5.97;;;1.70;;
76284;SDS011;71676;50.998;7.098;2024-02-16T01:53:16;4.32;;;1.50;;
76284;SDS011;71676;50.998;7.098;2024-02-16T01:55:43;4.30;;;1.45;;
76284;SDS011;71676;50.998;7.098;2024-02-16T01:58:12;3.55;;;1.60;;
76284;SDS011;71676;50.998;7.098;2024-02-16T02:00:39;3.50;;;1.50;;
76284;SDS011;71676;50.998;7.098;2024-02-16T02:03:06;3.70;;;1.42;;
76284;SDS011;71676;50.998;7.098;2024-02-16T02:05:33;4.25;;;1.42;;
76284;SDS011;71676;50.998;7.098;2024-02-16T02:08:08;5.25;;;1.50;;
76284;SDS011;71676;50.998;7.098;2024-02-16T02:10:35;3.22;;;1.40;;
76284;SDS011;71676;50.998;7.098;2024-02-16T02:13:02;9.10;;;2.50;;
76284;SDS011;71676;50.998;7.098;2024-02-16T02:15:30;7.03;;;2.30;;
76284;SDS011;71676;50.998;7.098;2024-02-16T02:17:57;4.25;;;1.50;;
76284;SDS011;71676;50.998;7.098;2024-02-16T02:20:24;3.38;;;1.52;;
76284;SDS011;71676;50.998;7.098;2024-02-16T02:22:52;5.55;;;1.70;;
76284;SDS011;71676;50.998;7.098;2024-02-16T02:25:19;4.22;;;1.70;;
76284;SDS011;71676;50.998;7.098;2024-02-16T02:27:46;5.07;;;1.55;;
76284;SDS011;71676;50.998;7.098;2024-02-16T02:30:13;4.30;;;1.60;;
76284;SDS011;71676;50.998;7.098;2024-02-16T02:32:41;4.22;;;1.60;;
76284;SDS011;71676;50.998;7.098;2024-02-16T02:35:08;3.42;;;1.40;;
76284;SDS011;71676;50.998;7.098;2024-02-16T02:37:36;4.35;;;1.60;;
76284;SDS011;71676;50.998;7.098;2024-02-16T02:40:05;4.07;;;1.45;;
76284;SDS011;71676;50.998;7.098;2024-02-16T02:42:33;6.95;;;2.03;;
76284;SDS011;71676;50.998;7.098;2024-02-16T02:45:00;4.55;;;1.60;;
76284;SDS011;71676;50.998;7.098;2024-02-16T02:47:27;3.97;;;1.55;;
76284;SDS011;71676;50.998;7.098;2024-02-16T02:49:53;5.47;;;1.77;;
76284;SDS011;71676;50.998;7.098;2024-02-16T02:52:20;4.82;;;1.70;;
76284;SDS011;71676;50.998;7.098;2024-02-16T02:54:47;4.20;;;1.63;;
76284;SDS011;71676;50.998;7.098;2024-02-16T02:57:18;5.28;;;1.75;;
76284;SDS011;71676;50.998;7.098;2024-02-16T02:59:44;4.55;;;1.95;;
76284;SDS011;71676;50.998;7.098;2024-02-16T03:02:11;7.28;;;1.83;;
76284;SDS011;71676;50.998;7.098;2024-02-16T03:04:38;3.47;;;1.42;;
76284;SDS011;71676;50.998;7.098;2024-02-16T03:07:04;6.00;;;1.60;;
76284;SDS011;71676;50.998;7.098;2024-02-16T03:09:31;3.95;;;1.60;;
76284;SDS011;71676;50.998;7.098;2024-02-16T03:11:58;4.22;;;1.60;;
76284;SDS011;71676;50.998;7.098;2024-02-16T03:14:26;3.22;;;1.55;;
76284;SDS011;71676;50.998;7.098;2024-02-16T03:16:52;3.83;;;1.60;;
76284;SDS011;71676;50.998;7.098;2024-02-16T03:19:19;3.90;;;1.55;;
76284;SDS011;71676;50.998;7.098;2024-02-16T03:21:46;7.65;;;1.95;;
76284;SDS011;71676;50.998;7.098;2024-02-16T03:24:13;5.65;;;1.52;;
76284;SDS011;71676;50.998;7.098;2024-02-16T03:26:40;4.88;;;1.67;;
76284;SDS011;71676;50.998;7.098;2024-02-16T03:29:06;5.35;;;1.50;;
76284;SDS011;71676;50.998;7.098;2024-02-16T03:31:34;4.63;;;1.85;;
76284;SDS011;71676;50.998;7.098;2024-02-16T03:34:01;5.85;;;1.60;;
76284;SDS011;71676;50.998;7.098;2024-02-16T03:36:28;4.30;;;1.98;;
76284;SDS011;71676;50.998;7.098;2024-02-16T03:38:55;4.22;;;1.60;;
76284;SDS011;71676;50.998;7.098;2024-02-16T03:41:22;4.53;;;1.50;;
76284;SDS011;71676;50.998;7.098;2024-02-16T03:43:49;6.25;;;1.95;;
76284;SDS011;71676;50.998;7.098;2024-02-16T03:46:16;3.83;;;1.35;;
76284;SDS011;71676;50.998;7.098;2024-02-16T03:48:44;4.63;;;1.58;;
76284;SDS011;71676;50.998;7.098;2024-02-16T03:51:11;4.63;;;2.08;;
76284;SDS011;71676;50.998;7.098;2024-02-16T03:53:38;3.78;;;1.50;;
76284;SDS011;71676;50.998;7.098;2024-02-16T03:56:05;5.20;;;1.85;;
76284;SDS011;71676;50.998;7.098;2024-02-16T03:58:32;3.92;;;1.55;;
76284;SDS011;71676;50.998;7.098;2024-02-16T04:00:59;4.30;;;2.00;;
76284;SDS011;71676;50.998;7.098;2024-02-16T04:03:26;5.53;;;1.42;;
76284;SDS011;71676;50.998;7.098;2024-02-16T04:05:54;4.43;;;1.58;;
76284;SDS011;71676;50.998;7.098;2024-02-16T04:08:20;3.92;;;1.50;;
76284;SDS011;71676;50.998;7.098;2024-02-16T04:10:47;3.10;;;1.48;;
76284;SDS011;71676;50.998;7.098;2024-02-16T04:13:14;4.65;;;1.70;;
76284;SDS011;71676;50.998;7.098;2024-02-16T04:15:40;6.80;;;1.70;;
76284;SDS011;71676;50.998;7.098;2024-02-16T04:18:07;5.28;;;1.60;;
76284;SDS011;71676;50.998;7.098;2024-02-16T04:20:34;4.25;;;1.70;;
76284;SDS011;71676;50.998;7.098;2024-02-16T04:23:02;5.07;;;1.52;;
76284;SDS011;71676;50.998;7.098;2024-02-16T04:25:29;3.95;;;1.90;;
76284;SDS011;71676;50.998;7.098;2024-02-16T04:27:55;5.93;;;1.67;;
76284;SDS011;71676;50.998;7.098;2024-02-16T04:30:22;6.47;;;2.13;;
76284;SDS011;71676;50.998;7.098;2024-02-16T04:32:48;4.72;;;1.73;;
76284;SDS011;71676;50.998;7.098;2024-02-16T04:35:15;4.05;;;1.50;;
76284;SDS011;71676;50.998;7.098;2024-02-16T04:37:42;2.58;;;1.30;;
76284;SDS011;71676;50.998;7.098;2024-02-16T04:40:10;3.92;;;1.63;;
76284;SDS011;71676;50.998;7.098;2024-02-16T04:42:38;5.35;;;1.60;;
76284;SDS011;71676;50.998;7.098;2024-02-16T04:45:05;5.82;;;1.63;;
76284;SDS011;71676;50.998;7.098;2024-02-16T04:47:33;5.47;;;1.90;;
76284;SDS011;71676;50.998;7.098;2024-02-16T04:50:00;6.00;;;1.80;;
76284;SDS011;71676;50.998;7.098;2024-02-16T04:52:26;4.25;;;1.90;;
76284;SDS011;71676;50.998;7.098;2024-02-16T04:54:53;4.93;;;2.05;;
76284;SDS011;71676;50.998;7.098;2024-02-16T04:57:21;6.40;;;2.15;;
76284;SDS011;71676;50.998;7.098;2024-02-16T04:59:48;5.22;;;1.80;;
76284;SDS011;71676;50.998;7.098;2024-02-16T05:02:14;5.90;;;1.80;;
76284;SDS011;71676;50.998;7.098;2024-02-16T05:04:41;4.82;;;1.90;;
76284;SDS011;71676;50.998;7.098;2024-02-16T05:07:08;5.70;;;1.88;;
76284;SDS011;71676;50.998;7.098;2024-02-16T05:09:35;5.40;;;1.70;;
76284;SDS011;71676;50.998;7.098;2024-02-16T05:12:01;6.05;;;1.73;;
76284;SDS011;71676;50.998;7.098;2024-02-16T05:14:33;5.72;;;1.80;;
76284;SDS011;71676;50.998;7.098;2024-02-16T05:17:00;5.13;;;1.83;;
76284;SDS011;71676;50.998;7.098;2024-02-16T05:19:27;4.78;;;1.75;;
76284;SDS011;71676;50.998;7.098;2024-02-16T05:21:53;5.63;;;1.60;;
76284;SDS011;71676;50.998;7.098;2024-02-16T05:24:20;4.30;;;1.77;;
76284;SDS011;71676;50.998;7.098;2024-02-16T05:26:48;5.25;;;1.85;;
76284;SDS011;71676;50.998;7.098;2024-02-16T05:29:16;6.68;;;1.88;;
76284;SDS011;71676;50.998;7.098;2024-02-16T05:31:44;5.10;;;1.80;;
76284;SDS011;71676;50.998;7.098;2024-02-16T05:34:11;4.30;;;1.73;;
76284;SDS011;71676;50.998;7.098;2024-02-16T05:36:38;5.88;;;1.83;;
76284;SDS011;71676;50.998;7.098;2024-02-16T05:39:07;4.63;;;1.90;;
76284;SDS011;71676;50.998;7.098;2024-02-16T05:41:45;5.07;;;1.88;;
76284;SDS011;71676;50.998;7.098;2024-02-16T05:44:12;6.85;;;2.03;;
76284;SDS011;71676;50.998;7.098;2024-02-16T05:46:38;4.78;;;1.85;;
76284;SDS011;71676;50.998;7.098;2024-02-16T05:49:06;5.38;;;1.70;;
76284;SDS011;71676;50.998;7.098;2024-02-16T05:51:34;5.57;;;1.95;;
76284;SDS011;71676;50.998;7.098;2024-02-16T05:54:01;5.80;;;1.90;;
76284;SDS011;71676;50.998;7.098;2024-02-16T05:56:28;5.20;;;1.98;;
76284;SDS011;71676;50.998;7.098;2024-02-16T05:58:57;6.82;;;1.60;;
76284;SDS011;71676;50.998;7.098;2024-02-16T06:01:24;5.35;;;1.90;;
76284;SDS011;71676;50.998;7.098;2024-02-16T06:03:51;4.95;;;1.95;;
76284;SDS011;71676;50.998;7.098;2024-02-16T06:06:19;5.00;;;1.90;;
76284;SDS011;71676;50.998;7.098;2024-02-16T06:08:46;6.65;;;2.03;;
76284;SDS011;71676;50.998;7.098;2024-02-16T06:11:13;5.22;;;1.85;;
76284;SDS011;71676;50.998;7.098;2024-02-16T06:13:40;6.00;;;1.80;;
76284;SDS011;71676;50.998;7.098;2024-02-16T06:16:08;4.30;;;1.80;;
76284;SDS011;71676;50.998;7.098;2024-02-16T06:18:34;5.30;;;1.80;;
76284;SDS011;71676;50.998;7.098;2024-02-16T06:21:01;4.47;;;2.00;;
76284;SDS011;71676;50.998;7.098;2024-02-16T06:23:29;4.57;;;1.70;;
76284;SDS011;71676;50.998;7.098;2024-02-16T06:25:56;4.90;;;2.10;;
76284;SDS011;71676;50.998;7.098;2024-02-16T06:28:22;6.97;;;1.90;;
76284;SDS011;71676;50.998;7.098;2024-02-16T06:30:49;6.35;;;1.80;;
76284;SDS011;71676;50.998;7.098;2024-02-16T06:33:15;5.80;;;2.03;;
76284;SDS011;71676;50.998;7.098;2024-02-16T06:35:42;6.95;;;2.15;;
76284;SDS011;71676;50.998;7.098;2024-02-16T06:38:11;7.20;;;2.25;;
76284;SDS011;71676;50.998;7.098;2024-02-16T06:40:39;6.47;;;2.10;;
76284;SDS011;71676;50.998;7.098;2024-02-16T06:43:06;6.75;;;1.88;;
76284;SDS011;71676;50.998;7.098;2024-02-16T06:45:32;6.15;;;1.85;;
76284;SDS011;71676;50.998;7.098;2024-02-16T06:47:59;5.00;;;1.77;;
76284;SDS011;71676;50.998;7.098;2024-02-16T06:50:25;4.55;;;1.85;;
76284;SDS011;71676;50.998;7.098;2024-02-16T06:52:52;4.78;;;1.90;;
76284;SDS011;71676;50.998;7.098;2024-02-16T06:55:20;6.93;;;2.25;;
76284;SDS011;71676;50.998;7.098;2024-02-16T06:57:48;4.00;;;1.88;;
76284;SDS011;71676;50.998;7.098;2024-02-16T07:00:15;6.05;;;1.95;;
76284;SDS011;71676;50.998;7.098;2024-02-16T07:02:45;5.00;;;1.92;;
76284;SDS011;71676;50.998;7.098;2024-02-16T07:05:11;5.18;;;1.88;;
76284;SDS011;71676;50.998;7.098;2024-02-16T07:07:38;5.70;;;1.85;;
76284;SDS011;71676;50.998;7.098;2024-02-16T07:10:06;5.47;;;2.00;;
76284;SDS011;71676;50.998;7.098;2024-02-16T07:12:38;4.65;;;1.90;;
76284;SDS011;71676;50.998;7.098;2024-02-16T07:15:07;6.30;;;2.30;;
76284;SDS011;71676;50.998;7.098;2024-02-16T07:17:34;4.35;;;1.98;;
76284;SDS011;71676;50.998;7.098;2024-02-16T07:20:02;4.65;;;2.03;;
76284;SDS011;71676;50.998;7.098;2024-02-16T07:22:29;7.50;;;2.50;;
76284;SDS011;71676;50.998;7.098;2024-02-16T07:24:57;7.30;;;2.17;;
76284;SDS011;71676;50.998;7.098;2024-02-16T07:27:25;6.15;;;2.13;;
76284;SDS011;71676;50.998;7.098;2024-02-16T07:29:51;5.38;;;2.00;;
76284;SDS011;71676;50.998;7.098;2024-02-16T07:32:19;5.45;;;2.00;;
76284;SDS011;71676;50.998;7.098;2024-02-16T07:34:46;4.75;;;1.60;;
76284;SDS011;71676;50.998;7.098;2024-02-16T07:37:13;4.50;;;1.90;;
76284;SDS011;71676;50.998;7.098;2024-02-16T07:39:40;4.60;;;1.75;;
76284;SDS011;71676;50.998;7.098;2024-02-16T07:42:07;5.13;;;1.90;;
76284;SDS011;71676;50.998;7.098;2024-02-16T07:44:35;6.07;;;1.77;;
76284;SDS011;71676;50.998;7.098;2024-02-16T07:47:01;5.68;;;1.80;;
76284;SDS011;71676;50.998;7.098;2024-02-16T07:49:29;5.32;;;2.15;;
76284;SDS011;71676;50.998;7.098;2024-02-16T07:51:56;5.97;;;1.73;;
76284;SDS011;71676;50.998;7.098;2024-02-16T07:54:23;4.13;;;1.52;;
76284;SDS011;71676;50.998;7.098;2024-02-16T07:56:49;5.78;;;2.08;;
76284;SDS011;71676;50.998;7.098;2024-02-16T07:59:16;4.30;;;2.00;;
76284;SDS011;71676;50.998;7.098;2024-02-16T08:01:44;7.03;;;1.83;;
76284;SDS011;71676;50.998;7.098;2024-02-16T08:04:10;7.35;;;1.90;;
76284;SDS011;71676;50.998;7.098;2024-02-16T08:06:38;5.30;;;2.00;;
76284;SDS011;71676;50.998;7.098;2024-02-16T08:09:05;5.68;;;2.00;;
76284;SDS011;71676;50.998;7.098;2024-02-16T08:11:32;7.45;;;2.90;;
76284;SDS011;71676;50.998;7.098;2024-02-16T08:13:58;5.25;;;1.73;;
76284;SDS011;71676;50.998;7.098;2024-02-16T08:16:26;5.47;;;1.90;;
76284;SDS011;71676;50.998;7.098;2024-02-16T08:18:53;4.65;;;1.77;;
76284;SDS011;71676;50.998;7.098;2024-02-16T08:21:20;5.40;;;1.75;;
76284;SDS011;71676;50.998;7.098;2024-02-16T08:23:48;5.60;;;1.88;;
76284;SDS011;71676;50.998;7.098;2024-02-16T08:26:14;3.75;;;1.70;;
76284;SDS011;71676;50.998;7.098;2024-02-16T08:28:43;6.88;;;2.47;;
76284;SDS011;71676;50.998;7.098;2024-02-16T08:31:14;5.75;;;2.00;;
76284;SDS011;71676;50.998;7.098;2024-02-16T08:33:42;5.55;;;1.95;;
76284;SDS011;71676;50.998;7.098;2024-02-16T08:36:09;7.57;;;2.67;;
76284;SDS011;71676;50.998;7.098;2024-02-16T08:38:36;4.68;;;1.85;;
76284;SDS011;71676;50.998;7.098;2024-02-16T08:41:04;6.47;;;2.00;;
76284;SDS011;71676;50.998;7.098;2024-02-16T08:43:31;6.95;;;1.83;;
76284;SDS011;71676;50.998;7.098;2024-02-16T08:45:57;5.22;;;2.20;;
76284;SDS011;71676;50.998;7.098;2024-02-16T08:48:24;4.95;;;1.90;;
76284;SDS011;71676;50.998;7.098;2024-02-16T08:50:51;6.18;;;1.88;;
76284;SDS011;71676;50.998;7.098;2024-02-16T08:53:17;5.32;;;2.00;;
76284;SDS011;71676;50.998;7.098;2024-02-16T08:55:44;6.03;;;2.03;;
76284;SDS011;71676;50.998;7.098;2024-02-16T08:58:12;5.50;;;2.00;;
76284;SDS011;71676;50.998;7.098;2024-02-16T09:00:39;8.82;;;2.10;;
76284;SDS011;71676;50.998;7.098;2024-02-16T09:03:05;6.20;;;2.70;;
76284;SDS011;71676;50.998;7.098;2024-02-16T09:05:33;7.47;;;1.90;;
76284;SDS011;71676;50.998;7.098;2024-02-16T09:08:00;5.30;;;2.00;;
76284;SDS011;71676;50.998;7.098;2024-02-16T09:10:28;5.53;;;2.00;;
76284;SDS011;71676;50.998;7.098;2024-02-16T09:12:54;5.03;;;1.75;;
76284;SDS011;71676;50.998;7.098;2024-02-16T09:15:22;5.90;;;1.98;;
76284;SDS011;71676;50.998;7.098;2024-02-16T09:17:49;6.35;;;1.90;;
76284;SDS011;71676;50.998;7.098;2024-02-16T09:20:16;5.00;;;1.80;;
76284;SDS011;71676;50.998;7.098;2024-02-16T09:22:48;4.72;;;1.83;;
76284;SDS011;71676;50.998;7.098;2024-02-16T09:25:15;5.47;;;2.03;;
76284;SDS011;71676;50.998;7.098;2024-02-16T09:27:41;5.43;;;1.63;;
76284;SDS011;71676;50.998;7.098;2024-02-16T09:30:10;5.20;;;1.73;;
76284;SDS011;71676;50.998;7.098;2024-02-16T09:32:40;5.82;;;1.90;;
76284;SDS011;71676;50.998;7.098;2024-02-16T09:35:07;5.20;;;1.80;;
76284;SDS011;71676;50.998;7.098;2024-02-16T09:37:34;4.65;;;1.95;;
76284;SDS011;71676;50.998;7.098;2024-02-16T09:40:02;5.38;;;2.08;;
76284;SDS011;71676;50.998;7.098;2024-02-16T09:42:30;6.18;;;2.03;;
76284;SDS011;71676;50.998;7.098;2024-02-16T09:44:59;5.30;;;2.50;;
76284;SDS011;71676;50.998;7.098;2024-02-16T09:47:25;6.25;;;1.70;;
76284;SDS011;71676;50.998;7.098;2024-02-16T09:49:56;7.68;;;2.72;;
76284;SDS011;71676;50.998;7.098;2024-02-16T09:52:23;5.18;;;2.47;;
76284;SDS011;71676;50.998;7.098;2024-02-16T09:54:50;6.15;;;1.75;;
76284;SDS011;71676;50.998;7.098;2024-02-16T09:57:17;7.28;;;2.20;;
76284;SDS011;71676;50.998;7.098;2024-02-16T09:59:43;5.13;;;1.90;;
76284;SDS011;71676;50.998;7.098;2024-02-16T10:02:10;6.45;;;2.22;;
76284;SDS011;71676;50.998;7.098;2024-02-16T10:04:37;6.28;;;2.42;;
76284;SDS011;71676;50.998;7.098;2024-02-16T10:07:05;5.13;;;1.85;;
76284;SDS011;71676;50.998;7.098;2024-02-16T10:09:32;7.10;;;2.30;;
76284;SDS011;71676;50.998;7.098;2024-02-16T10:11:58;6.60;;;1.92;;
76284;SDS011;71676;50.998;7.098;2024-02-16T10:14:25;4.32;;;1.80;;
76284;SDS011;71676;50.998;7.098;2024-02-16T10:16:59;5.07;;;1.90;;
76284;SDS011;71676;50.998;7.098;2024-02-16T10:19:28;3.92;;;1.80;;
76284;SDS011;71676;50.998;7.098;2024-02-16T10:22:06;7.57;;;2.28;;
76284;SDS011;71676;50.998;7.098;2024-02-16T10:24:33;5.93;;;2.08;;
76284;SDS011;71676;50.998;7.098;2024-02-16T10:27:00;6.22;;;2.15;;
76284;SDS011;71676;50.998;7.098;2024-02-16T10:29:27;4.38;;;1.92;;
76284;SDS011;71676;50.998;7.098;2024-02-16T10:31:54;6.18;;;2.00;;
76284;SDS011;71676;50.998;7.098;2024-02-16T10:34:20;4.80;;;1.63;;
76284;SDS011;71676;50.998;7.098;2024-02-16T10:36:50;6.97;;;2.30;;
76284;SDS011;71676;50.998;7.098;2024-02-16T10:39:19;5.05;;;2.00;;
76284;SDS011;71676;50.998;7.098;2024-02-16T10:41:46;7.70;;;2.15;;
76284;SDS011;71676;50.998;7.098;2024-02-16T10:44:14;6.88;;;2.05;;
76284;SDS011;71676;50.998;7.098;2024-02-16T10:46:41;5.25;;;2.00;;
76284;SDS011;71676;50.998;7.098;2024-02-16T10:49:08;4.82;;;1.95;;
76284;SDS011;71676;50.998;7.098;2024-02-16T10:51:35;4.57;;;2.05;;
76284;SDS011;71676;50.998;7.098;2024-02-16T10:54:04;6.82;;;2.17;;
76284;SDS011;71676;50.998;7.098;2024-02-16T10:56:34;4.68;;;2.00;;
76284;SDS011;71676;50.998;7.098;2024-02-16T10:59:02;4.88;;;1.80;;
76284;SDS011;71676;50.998;7.098;2024-02-16T11:01:32;5.78;;;2.10;;
76284;SDS011;71676;50.998;7.098;2024-02-16T11:04:03;7.45;;;2.40;;
76284;SDS011;71676;50.998;7.098;2024-02-16T11:06:33;6.53;;;2.20;;
76284;SDS011;71676;50.998;7.098;2024-02-16T11:09:11;10.23;;;2.20;;
76284;SDS011;71676;50.998;7.098;2024-02-16T11:11:39;6.15;;;2.40;;
76284;SDS011;71676;50.998;7.098;2024-02-16T11:14:13;6.70;;;2.17;;
76284;SDS011;71676;50.998;7.098;2024-02-16T11:16:43;5.75;;;2.03;;
76284;SDS011;71676;50.998;7.098;2024-02-16T11:19:11;7.18;;;2.13;;
76284;SDS011;71676;50.998;7.098;2024-02-16T11:21:39;9.02;;;2.30;;
76284;SDS011;71676;50.998;7.098;2024-02-16T11:24:06;8.20;;;2.80;;
76284;SDS011;71676;50.998;7.098;2024-02-16T11:26:42;6.47;;;2.47;;
76284;SDS011;71676;50.998;7.098;2024-02-16T11:29:11;7.97;;;2.70;;
76284;SDS011;71676;50.998;7.098;2024-02-16T11:31:37;6.95;;;2.50;;
76284;SDS011;71676;50.998;7.098;2024-02-16T11:34:04;6.20;;;2.33;;
76284;SDS011;71676;50.998;7.098;2024-02-16T11:36:31;7.13;;;2.10;;
76284;SDS011;71676;50.998;7.098;2024-02-16T11:38:58;7.30;;;2.28;;
76284;SDS011;71676;50.998;7.098;2024-02-16T11:41:25;7.97;;;2.30;;
76284;SDS011;71676;50.998;7.098;2024-02-16T11:43:59;6.55;;;2.47;;
76284;SDS011;71676;50.998;7.098;2024-02-16T11:46:27;6.75;;;2.53;;
76284;SDS011;71676;50.998;7.098;2024-02-16T11:49:03;8.32;;;2.40;;
76284;SDS011;71676;50.998;7.098;2024-02-16T11:51:30;6.47;;;2.65;;
76284;SDS011;71676;50.998;7.098;2024-02-16T11:53:58;8.20;;;2.35;;
76284;SDS011;71676;50.998;7.098;2024-02-16T11:56:25;6.70;;;2.40;;
76284;SDS011;71676;50.998;7.098;2024-02-16T11:58:52;10.35;;;2.80;;
76284;SDS011;71676;50.998;7.098;2024-02-16T12:01:20;5.20;;;2.25;;
76284;SDS011;71676;50.998;7.098;2024-02-16T12:03:47;8.18;;;2.47;;
76284;SDS011;71676;50.998;7.098;2024-02-16T12:06:19;8.90;;;2.15;;
76284;SDS011;71676;50.998;7.098;2024-02-16T12:08:46;10.63;;;3.03;;
76284;SDS011;71676;50.998;7.098;2024-02-16T12:11:13;5.85;;;2.10;;
76284;SDS011;71676;50.998;7.098;2024-02-16T12:13:40;6.78;;;2.35;;
76284;SDS011;71676;50.998;7.098;2024-02-16T12:16:07;8.73;;;2.30;;
76284;SDS011;71676;50.998;7.098;2024-02-16T12:18:35;4.95;;;2.25;;
76284;SDS011;71676;50.998;7.098;2024-02-16T12:21:02;8.75;;;3.05;;
76284;SDS011;71676;50.998;7.098;2024-02-16T12:23:31;5.95;;;2.25;;
76284;SDS011;71676;50.998;7.098;2024-02-16T12:25:58;8.73;;;2.40;;
76284;SDS011;71676;50.998;7.098;2024-02-16T12:28:26;6.75;;;2.47;;
76284;SDS011;71676;50.998;7.098;2024-02-16T12:30:54;7.03;;;2.78;;
76284;SDS011;71676;50.998;7.098;2024-02-16T12:33:21;8.00;;;2.67;;
76284;SDS011;71676;50.998;7.098;2024-02-16T12:35:49;7.38;;;2.45;;
76284;SDS011;71676;50.998;7.098;2024-02-16T12:38:16;7.97;;;2.88;;
76284;SDS011;71676;50.998;7.098;2024-02-16T12:40:44;6.88;;;2.58;;
76284;SDS011;71676;50.998;7.098;2024-02-16T12:43:11;8.32;;;2.38;;
76284;SDS011;71676;50.998;7.098;2024-02-16T12:45:38;7.15;;;2.53;;
76284;SDS011;71676;50.998;7.098;2024-02-16T12:48:05;7.45;;;2.45;;
76284;SDS011;71676;50.998;7.098;2024-02-16T12:50:34;6.35;;;2.67;;
76284;SDS011;71676;50.998;7.098;2024-02-16T12:53:02;9.13;;;2.90;;
76284;SDS011;71676;50.998;7.098;2024-02-16T12:55:28;8.02;;;2.88;;
76284;SDS011;71676;50.998;7.098;2024-02-16T12:57:55;7.90;;;2.90;;
76284;SDS011;71676;50.998;7.098;2024-02-16T13:00:22;9.90;;;2.92;;
76284;SDS011;71676;50.998;7.098;2024-02-16T13:02:50;7.70;;;2.70;;
76284;SDS011;71676;50.998;7.098;2024-02-16T13:05:16;7.70;;;2.90;;
76284;SDS011;71676;50.998;7.098;2024-02-16T13:07:43;8.52;;;2.75;;
76284;SDS011;71676;50.998;7.098;2024-02-16T13:10:11;7.28;;;2.97;;
76284;SDS011;71676;50.998;7.098;2024-02-16T13:12:38;8.35;;;2.70;;
76284;SDS011;71676;50.998;7.098;2024-02-16T13:15:05;8.73;;;2.92;;
76284;SDS011;71676;50.998;7.098;2024-02-16T13:17:33;8.55;;;3.08;;
76284;SDS011;71676;50.998;7.098;2024-02-16T13:19:59;8.25;;;2.92;;
76284;SDS011;71676;50.998;7.098;2024-02-16T13:22:32;8.90;;;3.00;;
76284;SDS011;71676;50.998;7.098;2024-02-16T13:24:59;8.50;;;2.55;;
76284;SDS011;71676;50.998;7.098;2024-02-16T13:27:26;9.75;;;3.00;;
76284;SDS011;71676;50.998;7.098;2024-02-16T13:29:52;6.95;;;2.78;;
76284;SDS011;71676;50.998;7.098;2024-02-16T13:32:19;9.75;;;3.10;;
76284;SDS011;71676;50.998;7.098;2024-02-16T13:34:46;7.10;;;2.80;;
76284;SDS011;71676;50.998;7.098;2024-02-16T13:37:13;8.95;;;3.40;;
76284;SDS011;71676;50.998;7.098;2024-02-16T13:39:39;8.15;;;3.22;;
76284;SDS011;71676;50.998;7.098;2024-02-16T13:42:06;9.55;;;3.63;;
76284;SDS011;71676;50.998;7.098;2024-02-16T13:44:35;8.73;;;3.83;;
76284;SDS011;71676;50.998;7.098;2024-02-16T13:47:02;9.35;;;4.55;;
76284;SDS011;71676;50.998;7.098;2024-02-16T13:49:28;10.02;;;3.70;;
76284;SDS011;71676;50.998;7.098;2024-02-16T13:51:55;11.43;;;4.00;;
76284;SDS011;71676;50.998;7.098;2024-02-16T13:54:23;8.13;;;3.55;;
76284;SDS011;71676;50.998;7.098;2024-02-16T13:56:50;10.40;;;3.83;;
76284;SDS011;71676;50.998;7.098;2024-02-16T13:59:17;8.23;;;4.00;;
76284;SDS011;71676;50.998;7.098;2024-02-16T14:01:45;10.30;;;4.20;;
76284;SDS011;71676;50.998;7.098;2024-02-16T14:04:13;11.65;;;4.90;;
76284;SDS011;71676;50.998;7.098;2024-02-16T14:06:40;8.70;;;3.78;;
76284;SDS011;71676;50.998;7.098;2024-02-16T14:09:06;10.27;;;4.20;;
76284;SDS011;71676;50.998;7.098;2024-02-16T14:11:34;8.90;;;4.20;;
76284;SDS011;71676;50.998;7.098;2024-02-16T14:14:01;9.38;;;4.32;;
76284;SDS011;71676;50.998;7.098;2024-02-16T14:16:27;11.48;;;4.28;;
76284;SDS011;71676;50.998;7.098;2024-02-16T14:18:56;9.48;;;4.43;;
76284;SDS011;71676;50.998;7.098;2024-02-16T14:21:23;10.48;;;4.78;;
76284;SDS011;71676;50.998;7.098;2024-02-16T14:23:50;12.38;;;4.90;;
76284;SDS011;71676;50.998;7.098;2024-02-16T14:26:17;12.60;;;4.47;;
76284;SDS011;71676;50.998;7.098;2024-02-16T14:28:44;9.57;;;4.38;;
76284;SDS011;71676;50.998;7.098;2024-02-16T14:31:12;11.18;;;4.45;;
76284;SDS011;71676;50.998;7.098;2024-02-16T14:33:39;10.10;;;4.07;;
76284;SDS011;71676;50.998;7.098;2024-02-16T14:36:07;10.50;;;4.90;;
76284;SDS011;71676;50.998;7.098;2024-02-16T14:38:34;9.65;;;4.47;;
76284;SDS011;71676;50.998;7.098;2024-02-16T14:41:01;10.43;;;4.60;;
76284;SDS011;71676;50.998;7.098;2024-02-16T14:43:28;11.48;;;4.88;;
76284;SDS011;71676;50.998;7.098;2024-02-16T14:45:56;10.32;;;4.13;;
76284;SDS011;71676;50.998;7.098;2024-02-16T14:48:23;8.82;;;3.92;;
76284;SDS011;71676;50.998;7.098;2024-02-16T14:50:51;9.57;;;4.07;;